Terminal Aerodrome Forecast
Issued by NWS

Home | Current Version | Previous Version | Text Only | Print | Product List | Glossary On
Versions: 1 2 3 4 5 6 7 8 9 10 11 12
000
FTUS45 KABQ 290520
TAFROW
TAF
KROW 290520Z 2906/3006 16006KT P6SM FEW080
     FM290700 VRB04KT P6SM SKC
     FM291800 15012G20KT P6SM SKC
     FM300300 15009KT P6SM FEW100=

USA.gov is the U.S. government's official web portal to all federal, state and local government web resources and services.